Time;durP1;ratioP1;P1;durP2;ratioP2;P2;SDS_P1;SDS_P2;PMS_P1;PMS_P2;Temp;Humidity;BMP_temperature;BMP_pressure;BME280_temperature;BME280_humidity;BME280_pressure;Samples;Min_cycle;Max_cycle;Signal;HPM_P1;HPM_P2
2022/05/14 04:02:26;;;;;;;12.23;7.73;;;11.90;99.90;;;;;;5091435;23;20565;-70
2022/05/14 04:04:52;;;;;;;8.13;7.30;;;11.90;99.90;;;;;;4997361;28;20453;-70
2022/05/14 04:07:19;;;;;;;7.93;7.10;;;11.90;99.90;;;;;;4997465;28;20457;-67
2022/05/14 04:09:46;;;;;;;8.80;7.87;;;11.90;99.90;;;;;;4997533;28;20434;-67
2022/05/14 04:12:12;;;;;;;8.87;8.00;;;11.80;99.90;;;;;;4997334;28;20477;-67
2022/05/14 04:14:39;;;;;;;8.30;7.43;;;11.80;99.90;;;;;;4997007;28;21060;-67
2022/05/14 04:17:06;;;;;;;8.60;7.47;;;11.70;99.90;;;;;;4997466;28;20816;-67
2022/05/14 04:19:34;;;;;;;8.47;7.67;;;11.60;99.90;;;;;;4997685;28;20462;-66
2022/05/14 04:22:00;;;;;;;7.27;6.63;;;11.50;99.90;;;;;;4997099;28;20844;-67
2022/05/14 04:24:27;;;;;;;7.90;7.20;;;11.40;99.90;;;;;;4997111;28;20465;-65
2022/05/14 04:26:54;;;;;;;8.77;7.53;;;11.40;99.90;;;;;;4997099;28;20798;-66
2022/05/14 04:29:21;;;;;;;8.70;7.63;;;11.30;99.90;;;;;;4997183;28;20450;-65
2022/05/14 04:31:48;;;;;;;8.00;7.40;;;11.20;99.90;;;;;;4996176;28;20986;-65
2022/05/14 04:34:15;;;;;;;9.20;7.20;;;11.20;99.90;;;;;;4996833;28;20457;-65
2022/05/14 04:36:43;;;;;;;10.60;7.30;;;11.20;99.90;;;;;;4996536;28;20973;-65
2022/05/14 04:39:10;;;;;;;7.20;6.20;;;11.30;99.90;;;;;;4996791;28;20950;-65
2022/05/14 04:41:51;;;;;;;8.50;6.30;;;11.30;99.90;;;;;;4996680;28;21013;-65
2022/05/14 04:44:18;;;;;;;6.83;6.13;;;11.30;99.90;;;;;;4996409;28;20445;-65
2022/05/14 04:46:44;;;;;;;6.57;5.90;;;11.30;99.90;;;;;;4996472;28;20953;-67
2022/05/14 04:49:11;;;;;;;7.83;5.00;;;11.30;99.90;;;;;;4996733;28;20457;-66
2022/05/14 04:51:38;;;;;;;5.30;4.80;;;11.40;99.90;;;;;;4996606;28;20470;-66
2022/05/14 04:54:06;;;;;;;8.80;5.43;;;11.40;99.90;;;;;;4996686;28;20456;-66
2022/05/14 04:56:33;;;;;;;6.30;5.37;;;11.50;99.90;;;;;;4996092;28;20572;-66
2022/05/14 04:58:59;;;;;;;8.47;6.57;;;11.40;99.90;;;;;;4996834;28;20536;-67
2022/05/14 05:01:26;;;;;;;7.27;5.73;;;11.40;99.90;;;;;;4996019;28;20481;-66
2022/05/14 05:03:52;;;;;;;7.63;6.17;;;11.50;99.90;;;;;;4996362;28;20623;-66
2022/05/14 05:06:18;;;;;;;11.40;5.70;;;11.60;99.90;;;;;;4996484;28;20797;-67
2022/05/14 05:08:45;;;;;;;6.37;5.90;;;11.60;99.90;;;;;;4996301;28;20225;-67
2022/05/14 05:11:13;;;;;;;6.90;5.73;;;11.70;99.90;;;;;;4996302;28;20478;-67
2022/05/14 05:13:40;;;;;;;6.47;5.87;;;11.70;99.90;;;;;;4996208;28;20458;-67
2022/05/14 05:16:07;;;;;;;6.80;6.17;;;11.60;99.90;;;;;;4996056;28;20564;-66
2022/05/14 05:18:34;;;;;;;6.93;5.80;;;11.60;99.90;;;;;;4996059;28;20869;-67
2022/05/14 05:21:01;;;;;;;7.70;5.47;;;11.80;99.90;;;;;;4996009;28;20473;-67
2022/05/14 05:23:28;;;;;;;7.30;6.07;;;12.00;99.90;;;;;;4995834;28;20531;-67
2022/05/14 05:25:55;;;;;;;10.90;4.90;;;12.30;99.90;;;;;;4995861;28;20512;-67
2022/05/14 05:28:23;;;;;;;4.97;4.47;;;12.60;99.90;;;;;;4995895;28;20469;-67
2022/05/14 05:30:50;;;;;;;5.30;4.80;;;12.90;99.90;;;;;;4996026;28;20473;-67
2022/05/14 05:33:20;;;;;;;6.33;4.90;;;13.40;99.90;;;;;;4995867;28;20465;-67
2022/05/14 05:35:48;;;;;;;7.50;4.63;;;13.70;99.90;;;;;;4995700;28;20497;-68
2022/05/14 05:38:15;;;;;;;8.17;4.73;;;13.90;99.90;;;;;;4995430;28;20943;-69
2022/05/14 05:40:42;;;;;;;5.33;4.77;;;14.20;99.90;;;;;;4995704;28;20489;-70
2022/05/14 05:43:10;;;;;;;7.87;5.37;;;14.20;99.90;;;;;;4994949;28;20457;-68
2022/05/14 05:45:40;;;;;;;7.20;4.93;;;14.60;99.90;;;;;;4995640;28;20454;-68
2022/05/14 05:48:08;;;;;;;6.73;5.53;;;14.70;99.90;;;;;;4995220;28;20464;-68
2022/05/14 05:50:37;;;;;;;6.17;4.80;;;14.80;99.90;;;;;;4995446;28;20565;-68
2022/05/14 05:53:04;;;;;;;4.90;4.50;;;14.80;99.90;;;;;;4995226;28;20946;-68
2022/05/14 05:58:17;;;;;;;5.27;4.73;;;14.80;99.90;;;;;;4995480;28;20446;-67
2022/05/14 06:00:46;;;;;;;5.73;4.70;;;14.80;99.90;;;;;;4995177;28;20513;-68
2022/05/14 06:03:13;;;;;;;6.33;5.07;;;14.80;99.90;;;;;;4995706;28;20442;-68
2022/05/14 06:05:42;;;;;;;6.43;5.23;;;14.80;99.90;;;;;;5007005;28;20450;-68
2022/05/14 06:08:09;;;;;;;5.17;4.77;;;14.80;99.90;;;;;;5000436;28;20496;-68
2022/05/14 06:10:36;;;;;;;4.63;4.33;;;14.80;99.90;;;;;;4995600;28;20549;-69
2022/05/14 06:13:03;;;;;;;5.30;4.77;;;14.90;99.90;;;;;;4995493;28;20977;-67
2022/05/14 06:15:30;;;;;;;5.13;4.43;;;15.00;99.90;;;;;;4995212;28;20488;-68
2022/05/14 06:18:02;;;;;;;6.60;4.73;;;15.20;99.90;;;;;;4995322;28;20458;-67
2022/05/14 06:20:29;;;;;;;9.13;5.10;;;15.30;99.90;;;;;;4995451;28;20447;-68
2022/05/14 06:22:56;;;;;;;10.50;4.73;;;15.40;99.90;;;;;;4995188;28;20457;-66
2022/05/14 06:25:23;;;;;;;4.70;4.30;;;15.60;99.90;;;;;;4995063;28;20450;-66
2022/05/14 06:27:50;;;;;;;6.10;4.43;;;16.00;99.90;;;;;;4995062;28;20457;-66
2022/05/14 06:30:17;;;;;;;5.60;4.60;;;16.50;99.90;;;;;;4995753;28;20454;-69
2022/05/14 06:32:44;;;;;;;9.07;4.17;;;17.00;99.90;;;;;;4995502;28;20461;-65
2022/05/14 06:35:12;;;;;;;4.00;3.70;;;17.60;99.90;;;;;;4994467;28;22771;-65
2022/05/14 06:37:39;;;;;;;4.90;3.93;;;18.10;99.90;;;;;;4994578;28;20938;-65
2022/05/14 06:40:07;;;;;;;5.93;4.10;;;18.80;99.90;;;;;;4994533;28;20795;-65
2022/05/14 06:42:36;;;;;;;10.03;3.93;;;19.40;99.90;;;;;;4994541;28;20473;-65
2022/05/14 06:45:03;;;;;;;3.73;3.43;;;20.10;99.90;;;;;;4994365;28;20947;-65
2022/05/14 06:47:30;;;;;;;5.50;4.50;;;20.70;99.90;;;;;;4994615;28;20454;-65
2022/05/14 06:49:56;;;;;;;4.00;3.60;;;20.60;99.90;;;;;;4994759;28;20442;-65
2022/05/14 06:52:24;;;;;;;3.57;3.27;;;20.90;99.90;;;;;;4994412;28;20477;-65
2022/05/14 06:54:53;;;;;;;5.93;3.70;;;21.50;99.90;;;;;;4994352;28;20516;-66
2022/05/14 06:57:20;;;;;;;6.60;4.10;;;22.20;99.90;;;;;;4994466;28;20486;-66
2022/05/14 06:59:47;;;;;;;4.00;3.60;;;22.70;99.90;;;;;;4994183;28;20960;-66
2022/05/14 07:02:15;;;;;;;5.60;3.40;;;23.20;99.90;;;;;;4994040;28;20907;-66
2022/05/14 07:07:28;;;;;;;5.40;3.67;;;24.10;99.90;;;;;;4994934;28;20465;-66
2022/05/14 07:09:55;;;;;;;3.50;2.97;;;24.60;99.90;;;;;;4994293;28;20458;-66
2022/05/14 07:12:22;;;;;;;5.80;3.10;;;25.20;98.40;;;;;;4994020;28;21049;-66
2022/05/14 07:14:49;;;;;;;3.87;2.77;;;25.80;96.00;;;;;;4994224;28;20454;-66
2022/05/14 07:17:16;;;;;;;5.47;3.20;;;26.20;92.20;;;;;;4994084;28;20548;-66
2022/05/14 07:19:43;;;;;;;3.70;2.50;;;26.70;88.80;;;;;;4994178;28;20454;-66
2022/05/14 07:22:14;;;;;;;4.47;2.30;;;27.20;89.80;;;;;;4994140;28;20477;-66
2022/05/14 07:24:42;;;;;;;4.43;2.60;;;27.10;82.90;;;;;;4994210;28;20497;-66
2022/05/14 07:27:11;;;;;;;10.10;2.43;;;27.60;81.20;;;;;;4994270;28;20456;-66
2022/05/14 07:29:38;;;;;;;3.37;2.07;;;27.10;76.90;;;;;;4994106;28;20464;-66
2022/05/14 07:32:05;;;;;;;4.93;2.10;;;27.00;74.40;;;;;;4993722;28;20837;-66
2022/05/14 07:34:32;;;;;;;5.63;2.50;;;26.70;77.70;;;;;;4994118;28;20449;-66
2022/05/14 07:37:02;;;;;;;3.80;3.00;;;26.40;76.30;;;;;;4994005;28;20473;-66
2022/05/14 07:39:33;;;;;;;3.10;2.80;;;26.30;78.70;;;;;;4993848;28;20438;-67
2022/05/14 07:42:05;;;;;;;3.63;3.33;;;26.50;81.20;;;;;;4994036;28;20549;-66
2022/05/14 07:44:37;;;;;;;3.83;2.73;;;26.70;84.20;;;;;;4994071;28;20442;-64
2022/05/14 07:47:05;;;;;;;6.93;3.47;;;27.00;83.10;;;;;;4993980;28;20434;-65
2022/05/14 07:49:32;;;;;;;4.90;3.20;;;27.30;77.20;;;;;;4993960;28;20477;-66
2022/05/14 07:51:59;;;;;;;3.70;2.43;;;27.10;81.20;;;;;;4993978;28;20480;-65
2022/05/14 07:54:26;;;;;;;4.60;3.10;;;27.30;80.00;;;;;;4993891;28;20463;-63
2022/05/14 07:56:55;;;;;;;5.63;2.53;;;28.10;76.80;;;;;;4993974;28;20477;-66
2022/05/14 07:59:23;;;;;;;4.67;2.80;;;28.80;78.50;;;;;;4994013;28;20453;-65
2022/05/14 08:01:49;;;;;;;3.87;2.83;;;28.50;74.50;;;;;;4993807;28;20512;-65
2022/05/14 08:04:16;;;;;;;8.80;2.97;;;28.50;78.20;;;;;;4995363;28;20942;-65
2022/05/14 08:06:43;;;;;;;3.03;2.70;;;29.00;78.00;;;;;;5002568;28;20457;-65
2022/05/14 08:09:09;;;;;;;3.63;2.57;;;29.00;70.20;;;;;;5006091;28;20461;-64
2022/05/14 08:11:36;;;;;;;4.60;2.70;;;29.00;69.70;;;;;;5004922;28;20481;-66
2022/05/14 08:14:04;;;;;;;3.23;2.93;;;28.70;68.50;;;;;;4998426;28;20456;-65
2022/05/14 08:16:32;;;;;;;3.30;2.50;;;28.50;68.80;;;;;;4997918;28;20484;-64
2022/05/14 08:19:00;;;;;;;3.53;2.50;;;28.30;70.40;;;;;;4997348;28;20457;-65
2022/05/14 08:26:55;;;;;;;3.30;2.63;;;29.00;66.80;;;;;;4997332;28;20421;-65
2022/05/14 08:29:23;;;;;;;3.33;2.67;;;29.30;64.00;;;;;;4997359;28;20450;-65
2022/05/14 08:31:52;;;;;;;9.30;2.13;;;29.40;63.70;;;;;;4996754;28;21030;-65
2022/05/14 08:34:18;;;;;;;3.03;2.23;;;29.60;62.60;;;;;;4996975;28;20850;-65
2022/05/14 08:36:45;;;;;;;5.97;2.37;;;29.30;64.80;;;;;;4997086;28;20482;-65
2022/05/14 08:39:13;;;;;;;2.43;1.87;;;29.30;63.70;;;;;;4996981;28;20445;-65
2022/05/14 08:41:43;;;;;;;2.67;1.90;;;29.70;62.70;;;;;;4996950;28;20484;-65
2022/05/14 08:44:15;;;;;;;6.40;2.30;;;30.20;64.90;;;;;;4996915;28;20493;-66
2022/05/14 08:46:43;;;;;;;3.37;1.90;;;30.40;59.70;;;;;;4996786;28;20438;-66
2022/05/14 08:49:17;;;;;;;7.50;2.00;;;30.60;59.00;;;;;;4997173;28;20453;-66
2022/05/14 08:51:47;;;;;;;6.53;1.90;;;30.90;58.30;;;;;;4996597;28;20457;-65
2022/05/14 08:54:14;;;;;;;3.73;1.70;;;31.30;57.00;;;;;;4997308;28;20190;-65
2022/05/14 08:56:47;;;;;;;2.43;1.80;;;31.30;57.90;;;;;;4996465;28;20477;-65
2022/05/14 08:59:24;;;;;;;2.10;1.90;;;31.30;56.70;;;;;;4996321;28;20453;-65
2022/05/14 09:01:53;;;;;;;5.23;2.40;;;31.30;55.20;;;;;;4995917;28;20481;-65
2022/05/14 09:04:22;;;;;;;3.93;1.90;;;31.30;53.60;;;;;;4996304;28;20470;-65
2022/05/14 09:06:50;;;;;;;2.60;1.70;;;31.40;54.60;;;;;;4996089;28;20485;-65
2022/05/14 09:09:19;;;;;;;3.17;1.80;;;31.20;54.10;;;;;;4996085;28;20469;-65
2022/05/14 09:11:52;;;;;;;2.10;1.57;;;31.30;53.00;;;;;;4996336;28;20565;-65
2022/05/14 09:14:21;;;;;;;2.30;1.60;;;31.60;52.40;;;;;;4996936;28;20442;-65
2022/05/14 09:16:51;;;;;;;2.17;1.53;;;31.60;53.70;;;;;;4996074;28;20481;-65
2022/05/14 09:19:23;;;;;;;2.67;1.67;;;31.70;53.80;;;;;;4995063;28;20453;-65
2022/05/14 09:21:53;;;;;;;5.03;2.00;;;31.90;53.10;;;;;;4996098;28;20477;-65
2022/05/14 09:24:25;;;;;;;8.53;2.00;;;31.90;51.70;;;;;;4995856;28;20898;-65
2022/05/14 09:26:55;;;;;;;2.20;1.70;;;31.40;53.40;;;;;;4996100;28;20457;-65
2022/05/14 09:29:27;;;;;;;6.73;1.90;;;31.00;51.60;;;;;;4996103;28;20540;-65
2022/05/14 09:31:58;;;;;;;2.03;1.33;;;30.90;52.90;;;;;;4996003;28;20896;-65
2022/05/14 09:34:27;;;;;;;1.60;1.50;;;31.00;55.00;;;;;;4998323;28;20442;-65
2022/05/14 09:37:02;;;;;;;3.60;1.50;;;31.40;56.30;;;;;;5005214;28;20508;-65
2022/05/14 09:39:29;;;;;;;4.90;1.50;;;31.50;51.70;;;;;;5001732;28;20457;-65
2022/05/14 09:42:00;;;;;;;2.00;1.70;;;31.60;50.60;;;;;;4996779;28;20508;-65
2022/05/14 09:44:30;;;;;;;1.67;1.57;;;31.70;52.60;;;;;;4995693;28;20448;-65
2022/05/14 09:47:08;;;;;;;1.40;1.30;;;32.30;49.50;;;;;;4995409;28;20943;-65
2022/05/14 09:49:39;;;;;;;2.57;1.50;;;32.60;51.70;;;;;;4995777;28;20852;-65
2022/05/14 09:52:08;;;;;;;4.37;1.30;;;33.00;51.20;;;;;;4995597;28;20482;-66
2022/05/14 09:54:41;;;;;;;4.27;1.40;;;33.30;49.40;;;;;;4995222;28;20934;-65
2022/05/14 09:57:39;;;;;;;2.80;1.57;;;33.80;50.40;;;;;;4995334;28;20604;-65
2022/05/14 10:00:11;;;;;;;1.90;1.27;;;34.20;46.80;;;;;;4996116;28;20434;-65
2022/05/14 10:03:06;;;;;;;2.40;1.43;;;34.80;48.60;;;;;;4995497;28;20438;-65
2022/05/14 10:05:50;;;;;;;3.10;1.60;;;34.70;46.10;;;;;;4990918;28;20473;-65
2022/05/14 10:08:25;;;;;;;2.40;1.50;;;35.00;46.90;;;;;;4995219;28;20525;-65
2022/05/14 10:11:03;;;;;;;3.90;1.60;;;35.00;47.70;;;;;;4995170;28;20876;-65
2022/05/14 10:13:50;;;;;;;3.77;1.60;;;34.90;47.50;;;;;;4995265;28;20465;-65
2022/05/14 10:16:23;;;;;;;5.93;1.50;;;34.80;48.40;;;;;;4994678;28;20468;-65
2022/05/14 10:19:04;;;;;;;2.30;1.80;;;34.80;43.10;;;;;;4994655;28;20843;-65
2022/05/14 10:21:41;;;;;;;3.00;1.40;;;34.30;45.80;;;;;;4995037;28;20477;-65
2022/05/14 10:27:18;;;;;;;4.77;1.30;;;33.00;45.60;;;;;;4994703;28;20971;-64
2022/05/14 10:29:58;;;;;;;4.60;1.70;;;32.90;46.60;;;;;;4994235;28;20915;-64
2022/05/14 10:32:29;;;;;;;3.53;1.57;;;33.20;45.90;;;;;;4994844;28;20481;-65
2022/05/14 10:35:01;;;;;;;2.97;1.50;;;33.50;45.00;;;;;;4994757;28;20957;-65
2022/05/14 10:37:33;;;;;;;5.13;1.57;;;33.20;48.60;;;;;;4994629;28;20469;-64
2022/05/14 10:40:08;;;;;;;2.83;1.37;;;33.20;44.90;;;;;;4994564;28;20434;-65
2022/05/14 10:42:43;;;;;;;4.63;1.23;;;33.00;44.50;;;;;;4994539;28;20993;-64
2022/05/14 10:45:14;;;;;;;2.43;1.10;;;32.70;45.30;;;;;;4994837;28;20441;-65
2022/05/14 10:47:56;;;;;;;2.60;1.47;;;32.80;45.80;;;;;;4994718;28;20521;-65
2022/05/14 10:50:22;;;;;;;2.50;1.40;;;32.70;45.90;;;;;;4994707;28;20445;-65
2022/05/14 10:52:52;;;;;;;3.07;1.37;;;33.10;47.50;;;;;;4995085;28;20465;-65
2022/05/14 10:55:23;;;;;;;1.50;1.00;;;33.40;47.60;;;;;;4994966;28;20493;-65
2022/05/14 10:57:55;;;;;;;1.30;1.20;;;33.50;47.60;;;;;;4994490;28;20528;-64
2022/05/14 11:00:36;;;;;;;1.43;1.13;;;33.70;44.60;;;;;;4994327;28;20441;-65
2022/05/14 11:03:09;;;;;;;3.03;1.33;;;33.80;45.60;;;;;;4994570;28;20441;-65
2022/05/14 11:05:49;;;;;;;3.47;1.13;;;33.70;40.90;;;;;;4994510;28;20496;-65
2022/05/14 11:08:30;;;;;;;3.83;1.40;;;33.20;43.10;;;;;;4994579;28;20433;-64
2022/05/14 11:11:07;;;;;;;3.20;1.40;;;32.70;45.60;;;;;;4994452;28;20889;-65
2022/05/14 11:13:35;;;;;;;2.67;1.60;;;32.70;46.50;;;;;;4994289;28;20496;-65
2022/05/14 11:16:05;;;;;;;3.43;1.30;;;32.80;44.00;;;;;;4994424;28;20457;-65
2022/05/14 11:18:43;;;;;;;2.83;1.20;;;32.90;44.60;;;;;;4994120;28;20568;-64
2022/05/14 11:21:09;;;;;;;2.63;1.10;;;32.60;45.40;;;;;;4994308;28;20469;-64
2022/05/14 11:23:48;;;;;;;2.47;1.10;;;31.90;44.90;;;;;;4994261;28;20457;-64
2022/05/14 11:26:16;;;;;;;1.70;1.10;;;31.70;45.40;;;;;;4994305;28;20442;-64
2022/05/14 11:28:44;;;;;;;2.23;2.03;;;31.50;45.40;;;;;;4993870;28;20802;-64
2022/05/14 11:31:17;;;;;;;10.63;1.40;;;31.10;43.80;;;;;;4994080;28;20485;-64
2022/05/14 11:33:45;;;;;;;2.13;1.10;;;31.10;46.20;;;;;;4994168;28;20489;-64
2022/05/14 11:36:25;;;;;;;1.17;0.90;;;30.90;44.80;;;;;;4994280;28;20461;-65
2022/05/14 11:39:23;;;;;;;2.50;1.20;;;30.60;45.60;;;;;;4994021;28;20437;-64
2022/05/14 11:41:51;;;;;;;1.23;1.10;;;30.40;47.40;;;;;;4995568;28;20479;-64
2022/05/14 11:44:30;;;;;;;2.10;1.40;;;30.40;48.60;;;;;;4998074;28;20453;-64
2022/05/14 11:46:57;;;;;;;1.90;1.27;;;30.30;45.50;;;;;;4997942;28;20448;-64
2022/05/14 11:49:27;;;;;;;1.43;1.33;;;29.70;47.20;;;;;;4997634;28;20545;-64
2022/05/14 11:52:04;;;;;;;1.40;1.27;;;29.70;50.00;;;;;;4997927;28;20478;-64
2022/05/14 11:54:38;;;;;;;1.30;1.20;;;29.60;49.20;;;;;;4997523;28;20770;-64
2022/05/14 11:57:13;;;;;;;1.33;1.17;;;29.70;49.60;;;;;;4997618;28;20470;-64
2022/05/14 11:59:43;;;;;;;1.70;1.17;;;29.50;48.90;;;;;;4997422;28;20875;-64
2022/05/14 12:02:16;;;;;;;3.03;1.70;;;29.50;47.50;;;;;;4997038;28;20492;-64
2022/05/14 12:04:50;;;;;;;2.33;1.33;;;29.50;47.30;;;;;;4997557;28;20442;-64
2022/05/14 12:07:39;;;;;;;1.47;1.30;;;29.40;50.60;;;;;;4997392;28;20442;-64
2022/05/14 12:10:18;;;;;;;1.67;1.27;;;29.20;50.90;;;;;;4997395;28;20442;-64
2022/05/14 12:12:52;;;;;;;2.20;1.50;;;28.80;48.90;;;;;;4997350;28;20449;-64
2022/05/14 12:15:24;;;;;;;2.13;1.40;;;28.60;49.90;;;;;;4997241;28;20446;-65
2022/05/14 12:17:53;;;;;;;2.40;2.03;;;28.60;50.10;;;;;;4997103;28;20466;-65
2022/05/14 12:20:24;;;;;;;3.87;1.53;;;28.60;49.60;;;;;;4997123;28;20516;-65
2022/05/14 12:22:54;;;;;;;1.87;1.30;;;28.80;51.60;;;;;;4996950;28;20437;-65
2022/05/14 12:25:33;;;;;;;1.87;1.33;;;29.10;53.80;;;;;;4997230;28;20460;-64
2022/05/14 12:28:00;;;;;;;1.27;1.27;;;28.90;51.40;;;;;;4997105;28;20441;-64
2022/05/14 12:33:18;;;;;;;4.23;1.47;;;28.80;48.50;;;;;;4997112;28;20418;-64
2022/05/14 12:35:53;;;;;;;2.03;1.30;;;28.50;50.90;;;;;;4997128;28;20442;-64
2022/05/14 12:38:27;;;;;;;1.53;1.40;;;28.30;51.40;;;;;;4996775;28;20514;-64
2022/05/14 12:40:56;;;;;;;0.90;0.90;;;28.40;51.00;;;;;;4996800;28;20509;-64
2022/05/14 12:43:23;;;;;;;3.53;1.13;;;28.40;50.70;;;;;;4996590;28;20581;-64
2022/05/14 12:45:59;;;;;;;1.90;1.20;;;28.50;49.40;;;;;;4996811;28;20578;-64
2022/05/14 12:48:26;;;;;;;2.03;1.67;;;28.50;50.20;;;;;;4996511;28;20438;-64
2022/05/14 12:50:55;;;;;;;1.40;1.30;;;28.70;51.80;;;;;;4996756;28;20473;-64
2022/05/14 12:53:33;;;;;;;1.53;1.20;;;28.90;50.70;;;;;;5003580;28;20485;-64
2022/05/14 12:56:01;;;;;;;3.23;1.43;;;29.00;50.70;;;;;;5001210;28;20441;-64
2022/05/14 12:58:30;;;;;;;1.83;1.40;;;28.90;51.10;;;;;;4998502;28;20482;-64
2022/05/14 13:00:57;;;;;;;1.43;1.33;;;28.90;50.00;;;;;;4996195;28;21022;-64
2022/05/14 13:03:30;;;;;;;3.90;1.80;;;29.10;50.40;;;;;;4996395;28;20970;-65
2022/05/14 13:06:03;;;;;;;1.97;1.13;;;29.00;49.50;;;;;;4996722;28;20492;-64
2022/05/14 13:08:31;;;;;;;4.93;1.53;;;29.10;48.80;;;;;;4997142;28;20561;-64
2022/05/14 13:11:00;;;;;;;1.33;1.23;;;29.10;49.00;;;;;;4996580;28;20504;-65
2022/05/14 13:13:35;;;;;;;4.93;1.47;;;28.90;49.40;;;;;;4996434;28;20888;-64
2022/05/14 13:16:09;;;;;;;1.93;1.20;;;28.80;50.00;;;;;;4996278;28;20528;-64
2022/05/14 13:18:42;;;;;;;7.90;1.80;;;28.70;50.40;;;;;;5006051;28;20461;-64
2022/05/14 13:21:18;;;;;;;1.63;1.33;;;28.60;50.20;;;;;;5009347;28;20847;-64
2022/05/14 13:23:53;;;;;;;3.90;1.80;;;28.40;48.60;;;;;;4997681;28;20441;-64
2022/05/14 13:26:26;;;;;;;3.47;1.37;;;28.30;48.00;;;;;;4996398;28;20445;-64
2022/05/14 13:28:54;;;;;;;2.73;1.40;;;28.20;47.30;;;;;;4995849;28;20903;-64
2022/05/14 13:31:26;;;;;;;1.53;1.40;;;28.30;50.40;;;;;;4996193;28;20487;-64
2022/05/14 13:37:07;;;;;;;2.27;1.30;;;28.30;48.40;;;;;;4999497;28;20442;-64
2022/05/14 13:37:10;;;;;;;1.30;1.10;;;28.30;51.10;;;;;;4998395;28;20851;-64
2022/05/14 13:39:40;;;;;;;1.70;1.33;;;28.60;50.30;;;;;;4999227;28;20458;-64
2022/05/14 13:42:17;;;;;;;2.63;1.47;;;28.40;49.60;;;;;;5000828;28;20464;-64
2022/05/14 13:44:50;;;;;;;2.70;1.37;;;28.50;47.50;;;;;;4995673;28;20438;-65
2022/05/14 13:47:20;;;;;;;2.60;1.70;;;28.60;50.10;;;;;;4995772;28;20525;-64
2022/05/14 13:49:53;;;;;;;1.23;1.13;;;28.60;50.90;;;;;;4995775;28;20434;-64
2022/05/14 13:52:26;;;;;;;1.43;1.00;;;28.80;49.10;;;;;;4995580;28;20480;-64
2022/05/14 13:55:02;;;;;;;1.33;1.23;;;28.80;46.40;;;;;;4995479;28;20433;-64
2022/05/14 13:57:29;;;;;;;1.43;1.23;;;28.90;49.00;;;;;;4995606;28;20468;-64
2022/05/14 14:00:07;;;;;;;2.33;1.50;;;28.80;48.70;;;;;;4995544;28;20457;-64
2022/05/14 14:02:33;;;;;;;1.20;1.20;;;28.70;46.10;;;;;;4995000;28;21053;-64
2022/05/14 14:05:03;;;;;;;1.17;1.10;;;28.70;47.20;;;;;;4994860;28;20458;-64
2022/05/14 14:07:34;;;;;;;1.93;1.20;;;28.70;47.30;;;;;;4995660;28;20465;-64
2022/05/14 14:10:09;;;;;;;1.60;1.50;;;28.60;47.40;;;;;;4995337;28;20442;-64
2022/05/14 14:12:36;;;;;;;2.80;1.53;;;28.40;48.50;;;;;;4995233;28;20499;-65
2022/05/14 14:15:06;;;;;;;1.77;1.40;;;28.40;48.60;;;;;;4995243;28;20513;-64
2022/05/14 14:17:33;;;;;;;4.20;1.80;;;28.30;47.90;;;;;;4994794;28;20438;-65
2022/05/14 14:20:00;;;;;;;2.30;1.30;;;28.30;47.90;;;;;;4995007;28;20457;-64
2022/05/14 14:22:27;;;;;;;1.87;1.40;;;28.20;48.60;;;;;;4995103;28;20551;-64
2022/05/14 14:24:56;;;;;;;1.37;1.27;;;28.30;49.50;;;;;;4995653;28;20458;-64
2022/05/14 14:27:25;;;;;;;3.07;1.20;;;28.40;49.70;;;;;;4994546;28;20529;-64
2022/05/14 14:29:53;;;;;;;1.70;1.60;;;28.50;49.50;;;;;;4994469;28;20939;-64
2022/05/14 14:32:21;;;;;;;1.47;1.07;;;28.50;47.00;;;;;;4995819;28;20484;-64
2022/05/14 14:34:48;;;;;;;1.60;1.40;;;28.40;46.60;;;;;;4995161;28;20462;-64
2022/05/14 14:37:14;;;;;;;1.53;1.20;;;28.30;47.50;;;;;;4994818;28;20530;-64
2022/05/14 14:39:41;;;;;;;1.63;1.47;;;28.10;47.10;;;;;;4994813;28;20484;-64
2022/05/14 14:42:09;;;;;;;2.50;1.00;;;28.10;47.60;;;;;;4994580;28;20978;-64
2022/05/14 14:44:36;;;;;;;4.50;1.80;;;28.10;46.10;;;;;;4994519;28;21005;-64
2022/05/14 14:47:03;;;;;;;2.17;1.60;;;28.20;48.60;;;;;;4994845;28;20454;-64
2022/05/14 14:49:32;;;;;;;1.30;1.20;;;28.10;45.00;;;;;;4994720;28;20457;-64
2022/05/14 14:51:58;;;;;;;1.70;1.60;;;28.10;48.00;;;;;;4994557;28;20482;-64
2022/05/14 14:54:26;;;;;;;1.40;1.30;;;28.00;47.10;;;;;;4994576;28;20947;-64
2022/05/14 14:56:52;;;;;;;4.23;1.43;;;28.00;45.50;;;;;;4994669;28;20462;-64
2022/05/14 14:59:19;;;;;;;5.63;1.50;;;28.00;47.30;;;;;;4994549;28;20477;-64
2022/05/14 15:01:50;;;;;;;1.07;1.00;;;28.00;44.60;;;;;;4994166;28;20488;-64
2022/05/14 15:04:23;;;;;;;2.40;1.40;;;28.00;46.80;;;;;;5001917;28;20446;-64
2022/05/14 15:06:52;;;;;;;2.20;1.23;;;28.00;46.40;;;;;;4998247;28;20791;-64
2022/05/14 15:09:19;;;;;;;1.63;1.20;;;27.90;44.50;;;;;;4995533;28;20961;-64
2022/05/14 15:11:46;;;;;;;3.03;1.60;;;27.70;44.80;;;;;;4994735;28;20896;-64
2022/05/14 15:14:15;;;;;;;4.00;1.20;;;27.70;47.00;;;;;;4994713;28;20511;-64
2022/05/14 15:16:41;;;;;;;1.23;1.13;;;27.60;49.00;;;;;;4997983;28;20505;-64
2022/05/14 15:19:08;;;;;;;2.20;1.33;;;27.70;49.20;;;;;;4999363;28;20481;-64
2022/05/14 15:21:36;;;;;;;2.33;1.83;;;27.80;47.60;;;;;;4998381;28;20477;-64
2022/05/14 15:24:05;;;;;;;2.57;1.77;;;27.80;48.90;;;;;;4998673;28;20489;-65
2022/05/14 15:26:32;;;;;;;2.20;1.10;;;27.90;49.10;;;;;;4998809;28;20461;-64
2022/05/14 15:28:59;;;;;;;1.63;1.53;;;27.90;48.30;;;;;;4999077;28;20445;-63
2022/05/14 15:31:31;;;;;;;2.13;1.30;;;27.60;49.00;;;;;;4999750;28;20504;-63
2022/05/14 15:33:58;;;;;;;2.17;2.03;;;27.50;50.10;;;;;;4999146;28;20454;-65
2022/05/14 15:36:25;;;;;;;1.50;1.40;;;27.50;50.80;;;;;;4998299;28;20457;-64
2022/05/14 15:38:52;;;;;;;2.27;1.20;;;27.40;49.00;;;;;;4998291;28;20477;-65
2022/05/14 15:41:20;;;;;;;4.77;1.47;;;27.30;49.70;;;;;;4998341;28;20481;-64
2022/05/14 15:43:46;;;;;;;2.10;1.40;;;27.10;50.50;;;;;;4998116;28;20457;-64
2022/05/14 15:46:21;;;;;;;1.90;1.50;;;27.10;48.90;;;;;;4998072;28;20457;-64
2022/05/14 15:48:53;;;;;;;2.70;1.30;;;27.10;49.10;;;;;;4998114;28;20495;-64
2022/05/14 15:51:22;;;;;;;9.50;1.57;;;27.10;50.20;;;;;;4997772;28;20522;-64
2022/05/14 15:53:49;;;;;;;1.63;1.37;;;27.00;49.70;;;;;;4997786;28;20481;-64
2022/05/14 15:56:19;;;;;;;2.10;1.53;;;27.00;48.20;;;;;;4997640;28;20461;-64
2022/05/14 15:58:47;;;;;;;1.90;1.70;;;27.00;49.00;;;;;;4997700;28;20527;-64
2022/05/14 16:01:14;;;;;;;1.90;1.50;;;27.00;49.10;;;;;;4997436;28;20496;-64
2022/05/14 16:03:41;;;;;;;1.87;1.23;;;26.80;50.10;;;;;;4997774;28;20457;-64
2022/05/14 16:06:08;;;;;;;1.60;1.30;;;26.80;49.20;;;;;;4997709;28;20492;-64
2022/05/14 16:08:35;;;;;;;1.73;1.20;;;26.80;50.20;;;;;;4997454;28;20460;-64
2022/05/14 16:16:31;;;;;;;2.50;1.73;;;26.70;48.40;;;;;;4998253;28;20417;-64
2022/05/14 16:18:58;;;;;;;2.50;1.30;;;26.60;50.30;;;;;;4997558;28;20488;-64
2022/05/14 16:21:25;;;;;;;3.20;2.63;;;26.40;49.60;;;;;;4997409;28;20477;-64
2022/05/14 16:23:54;;;;;;;3.67;1.80;;;26.30;49.10;;;;;;4997288;28;20461;-64
2022/05/14 16:26:22;;;;;;;2.37;1.67;;;26.10;49.00;;;;;;4997894;28;20457;-64
2022/05/14 16:28:52;;;;;;;2.90;2.70;;;26.10;49.40;;;;;;4996736;28;20457;-64
2022/05/14 16:31:21;;;;;;;7.67;2.10;;;25.90;49.10;;;;;;4997251;28;20477;-64
2022/05/14 16:33:48;;;;;;;4.50;1.80;;;25.70;50.40;;;;;;4997157;28;20454;-64
2022/05/14 16:36:15;;;;;;;1.80;1.70;;;25.60;49.70;;;;;;4997249;28;20461;-64
2022/05/14 16:38:44;;;;;;;4.10;2.00;;;25.60;48.80;;;;;;5004590;28;20485;-64
2022/05/14 16:41:11;;;;;;;3.80;2.00;;;25.50;49.10;;;;;;5006393;28;20478;-64
2022/05/14 16:43:38;;;;;;;6.60;1.80;;;25.40;49.80;;;;;;4997572;28;20453;-64
2022/05/14 16:46:07;;;;;;;4.83;1.90;;;25.20;49.30;;;;;;4996876;28;20458;-64
2022/05/14 16:48:34;;;;;;;12.43;2.57;;;25.00;50.20;;;;;;4996522;28;20453;-64
2022/05/14 16:51:01;;;;;;;13.10;4.67;;;25.10;50.40;;;;;;4996762;28;20473;-65
2022/05/14 16:53:28;;;;;;;1.93;1.83;;;25.10;50.40;;;;;;4996814;28;20461;-64
2022/05/14 16:55:57;;;;;;;3.60;1.83;;;24.90;49.00;;;;;;4997293;28;20544;-64
2022/05/14 16:58:24;;;;;;;2.20;2.00;;;24.90;49.70;;;;;;4996756;28;20572;-64
2022/05/14 17:00:53;;;;;;;2.47;1.60;;;24.90;48.80;;;;;;4996579;28;20517;-64
2022/05/14 17:03:22;;;;;;;2.30;2.10;;;24.80;49.60;;;;;;4996780;28;20462;-64
2022/05/14 17:05:48;;;;;;;4.13;1.87;;;24.70;49.10;;;;;;4996589;28;20457;-64
2022/05/14 17:08:15;;;;;;;2.10;1.90;;;24.70;49.50;;;;;;4996707;28;20458;-64
2022/05/14 17:10:45;;;;;;;3.43;1.90;;;24.60;48.60;;;;;;4996799;28;20481;-64
2022/05/14 17:13:12;;;;;;;2.43;1.70;;;24.50;48.90;;;;;;4997125;28;20574;-64
2022/05/14 17:15:41;;;;;;;1.87;1.60;;;24.30;48.80;;;;;;5005469;28;20453;-64
2022/05/14 17:18:10;;;;;;;2.20;1.70;;;24.30;48.80;;;;;;4999715;28;20549;-64
2022/05/14 17:20:40;;;;;;;1.70;1.60;;;24.30;49.00;;;;;;4997697;28;20808;-64
2022/05/14 17:23:07;;;;;;;1.50;1.40;;;24.30;48.80;;;;;;4996207;28;20452;-64